Time;durP1;ratioP1;P1;durP2;ratioP2;P2;SDS_P1;SDS_P2;PMS_P1;PMS_P2;Temp;Humidity;BMP_temperature;BMP_pressure;BME280_temperature;BME280_humidity;BME280_pressure;Samples;Min_cycle;Max_cycle;Signal;HPM_P1;HPM_P2
2021/03/10 00:01:17;;;;;;;7.35;4.50;;;;;;;6.50;47.35;101474.94;5083030;28;20435;-72
2021/03/10 00:03:45;;;;;;;6.75;4.18;;;;;;;6.50;47.40;101477.66;5087533;28;20123;-72
2021/03/10 00:06:12;;;;;;;7.22;4.50;;;;;;;6.49;47.42;101467.75;5092594;28;20135;-72
2021/03/10 00:08:40;;;;;;;6.25;4.20;;;;;;;6.50;47.29;101472.22;5091132;28;20064;-72
2021/03/10 00:11:08;;;;;;;6.70;4.70;;;;;;;6.49;47.45;101471.34;5075378;28;20387;-71
2021/03/10 00:13:36;;;;;;;7.70;4.35;;;;;;;6.49;47.47;101470.47;5091690;28;20123;-72
2021/03/10 00:16:03;;;;;;;8.63;5.43;;;;;;;6.49;47.40;101471.34;5092407;28;20064;-72
2021/03/10 00:18:33;;;;;;;8.15;5.15;;;;;;;6.49;47.19;101463.19;5092341;28;20042;-72
2021/03/10 00:21:00;;;;;;;6.85;4.22;;;;;;;6.49;47.46;101463.19;5080037;28;20198;-72
2021/03/10 00:23:28;;;;;;;7.68;5.20;;;;;;;6.49;47.46;101468.63;5091048;28;20520;-72
2021/03/10 00:25:56;;;;;;;6.88;4.10;;;;;;;6.51;47.35;101457.63;5074237;28;20403;-73
2021/03/10 00:28:24;;;;;;;7.53;5.05;;;;;;;6.49;47.28;101463.19;5096339;28;20036;-72
2021/03/10 00:30:51;;;;;;;6.65;4.07;;;;;;;6.49;47.34;101471.34;5091282;28;20507;-72
2021/03/10 00:33:19;;;;;;;6.63;4.20;;;;;;;6.49;47.26;101473.19;5091794;28;20028;-72
2021/03/10 00:35:46;;;;;;;6.63;4.57;;;;;;;6.49;47.38;101467.75;5073233;28;20163;-73
2021/03/10 00:38:13;;;;;;;6.55;4.32;;;;;;;6.50;47.30;101472.22;5092326;28;20028;-73
2021/03/10 00:40:40;;;;;;;8.20;5.28;;;;;;;6.50;47.37;101466.78;5091637;28;20052;-73
2021/03/10 00:43:08;;;;;;;6.68;4.72;;;;;;;6.50;47.21;101475.78;5073423;28;20043;-73
2021/03/10 00:45:36;;;;;;;7.47;5.20;;;;;;;6.49;47.45;101482.22;5071250;28;20047;-73
2021/03/10 00:48:04;;;;;;;6.30;4.38;;;;;;;6.49;47.11;101482.22;5082690;28;20048;-73
2021/03/10 00:50:34;;;;;;;9.00;4.63;;;;;;;6.50;47.36;101483.09;5091791;28;20093;-73
2021/03/10 00:53:01;;;;;;;7.25;4.22;;;;;;;6.49;47.34;101478.63;5089249;28;20047;-74
2021/03/10 00:55:29;;;;;;;7.28;4.15;;;;;;;6.49;47.10;101479.50;5092333;28;20036;-73
2021/03/10 00:57:56;;;;;;;8.23;5.03;;;;;;;6.49;47.23;101470.47;5082262;28;20044;-74
2021/03/10 01:00:25;;;;;;;7.97;4.85;;;;;;;6.50;47.26;101474.94;5078546;28;20040;-73
2021/03/10 01:02:53;;;;;;;7.47;4.57;;;;;;;6.48;47.15;101466.00;5093842;28;20063;-73
2021/03/10 01:05:20;;;;;;;7.78;5.03;;;;;;;6.48;47.30;101466.00;5095327;28;20502;-74
2021/03/10 01:07:48;;;;;;;6.30;4.53;;;;;;;6.48;47.45;101477.75;5093788;28;20044;-74
2021/03/10 01:10:16;;;;;;;6.60;3.95;;;;;;;6.49;47.26;101474.06;5094380;28;20094;-74
2021/03/10 01:12:43;;;;;;;6.75;4.40;;;;;;;6.49;47.32;101484.94;5093480;28;20887;-73
2021/03/10 01:15:13;;;;;;;6.40;4.22;;;;;;;6.49;47.30;101494.94;5093177;28;20040;-72
2021/03/10 01:17:41;;;;;;;6.03;3.90;;;;;;;6.49;47.19;101501.25;5095875;28;20040;-73
2021/03/10 01:20:11;;;;;;;6.03;4.35;;;;;;;6.49;47.26;101497.66;5098061;28;20046;-74
2021/03/10 01:22:38;;;;;;;6.82;4.30;;;;;;;6.47;47.10;101505.88;5090397;28;20403;-74
2021/03/10 01:25:06;;;;;;;5.78;3.45;;;;;;;6.48;47.08;101510.34;5088862;28;20040;-72
2021/03/10 01:27:34;;;;;;;6.57;4.25;;;;;;;6.47;47.05;101510.44;5090862;28;20044;-75
2021/03/10 01:30:02;;;;;;;7.13;3.85;;;;;;;6.47;47.27;101507.72;5064116;28;20044;-73
2021/03/10 01:32:30;;;;;;;6.18;3.85;;;;;;;6.45;47.04;101509.66;5090674;28;20039;-73
2021/03/10 01:34:58;;;;;;;6.47;4.40;;;;;;;6.45;46.85;101515.09;5092753;28;20051;-73
2021/03/10 01:37:25;;;;;;;6.80;4.18;;;;;;;6.42;47.07;101510.69;5090042;28;20040;-73
2021/03/10 01:39:52;;;;;;;5.93;4.13;;;;;;;6.41;47.14;101517.13;5089905;28;20059;-73
2021/03/10 01:42:21;;;;;;;7.35;4.10;;;;;;;6.40;47.01;101504.50;5091366;28;20039;-73
2021/03/10 01:44:52;;;;;;;;;;;;;;;6.16;47.76;101505.94;5091100;28;20085;-73
2021/03/10 01:47:21;;;;;;;5.78;3.45;;;;;;;6.35;46.98;101510.19;5100178;28;19923;-73
2021/03/10 01:49:49;;;;;;;6.30;3.92;;;;;;;6.36;46.97;101511.06;5088364;28;20043;-73
2021/03/10 01:52:17;;;;;;;6.30;4.35;;;;;;;6.37;47.10;101512.81;5066817;28;20033;-73
2021/03/10 01:54:45;;;;;;;5.50;3.65;;;;;;;6.36;47.15;101514.66;5087105;28;20051;-73
2021/03/10 01:57:12;;;;;;;6.35;3.83;;;;;;;6.35;46.99;101518.34;5090009;28;20081;-73
2021/03/10 01:59:41;;;;;;;7.38;4.10;;;;;;;6.34;47.06;101511.16;5090329;28;20047;-73
2021/03/10 02:02:10;;;;;;;7.63;4.13;;;;;;;6.34;46.89;101499.41;5090882;28;20067;-73
2021/03/10 02:04:38;;;;;;;6.68;3.72;;;;;;;6.36;47.13;101492.03;5088944;28;20044;-72
2021/03/10 02:07:11;;;;;;;7.18;4.55;;;;;;;6.36;47.16;101497.47;5071507;28;20090;-73
2021/03/10 02:09:50;;;;;;;6.47;4.03;;;;;;;6.35;47.31;101491.16;5087834;28;20044;-73
2021/03/10 02:12:25;;;;;;;7.32;4.28;;;;;;;6.34;47.39;101494.84;5075843;28;20044;-73
2021/03/10 02:14:59;;;;;;;7.22;4.20;;;;;;;6.33;47.18;101490.41;5078151;28;20330;-73
2021/03/10 02:17:32;;;;;;;6.25;4.05;;;;;;;6.33;47.11;101474.09;5064713;28;20050;-73
2021/03/10 02:20:07;;;;;;;6.10;3.95;;;;;;;6.33;47.20;101479.53;5076560;28;20040;-73
2021/03/10 02:22:50;;;;;;;;;;;;;;;6.09;47.70;101480.94;5052940;28;20589;-73
2021/03/10 02:25:28;;;;;;;6.63;3.58;;;;;;;6.27;47.24;101473.56;5072150;28;19938;-73
2021/03/10 02:28:01;;;;;;;6.43;3.70;;;;;;;6.30;47.13;101476.09;5072207;28;20078;-73
2021/03/10 02:30:33;;;;;;;6.25;3.90;;;;;;;6.30;46.68;101482.41;5090251;28;20502;-73
2021/03/10 02:33:03;;;;;;;5.57;3.60;;;;;;;6.29;47.14;101468.91;5090076;28;20040;-73
2021/03/10 02:35:32;;;;;;;5.15;3.40;;;;;;;6.28;46.91;101476.19;5049831;28;20109;-73
2021/03/10 02:38:02;;;;;;;5.45;3.35;;;;;;;6.28;46.94;101476.19;5076368;28;20047;-73
2021/03/10 02:40:31;;;;;;;4.55;3.45;;;;;;;6.27;46.83;101481.72;5059385;28;20106;-73
2021/03/10 02:43:00;;;;;;;5.20;3.35;;;;;;;6.27;47.02;101484.44;5081100;28;20070;-73
2021/03/10 02:45:28;;;;;;;5.43;3.40;;;;;;;6.27;47.10;101479.00;5077921;28;20341;-73
2021/03/10 02:47:58;;;;;;;6.20;3.42;;;;;;;6.27;47.14;101479.00;5086703;28;20060;-73
2021/03/10 02:50:26;;;;;;;6.60;3.88;;;;;;;6.27;47.15;101476.28;5069657;28;20039;-73
2021/03/10 02:52:55;;;;;;;5.57;3.50;;;;;;;6.27;47.06;101471.72;5087709;28;20067;-73
2021/03/10 02:55:23;;;;;;;6.35;3.97;;;;;;;6.27;47.14;101469.00;5088696;28;20130;-73
2021/03/10 02:57:50;;;;;;;4.82;3.30;;;;;;;6.28;47.24;101476.19;5080899;28;20038;-73
2021/03/10 03:00:21;;;;;;;6.40;3.80;;;;;;;6.28;47.18;101465.31;5085572;28;20037;-73
2021/03/10 03:02:48;;;;;;;6.15;4.00;;;;;;;6.28;46.99;101465.31;5086098;28;20042;-73
2021/03/10 03:05:17;;;;;;;5.30;3.47;;;;;;;6.29;46.95;101466.19;5087177;28;20032;-73
2021/03/10 03:07:45;;;;;;;5.70;3.50;;;;;;;6.30;47.13;101459.81;5088941;28;20028;-73
2021/03/10 03:10:16;;;;;;;6.40;3.70;;;;;;;6.29;47.51;101467.06;5089966;28;20279;-73
2021/03/10 03:12:44;;;;;;;5.72;3.70;;;;;;;6.28;47.07;101462.59;5072306;28;20127;-73
2021/03/10 03:15:14;;;;;;;5.45;3.45;;;;;;;6.30;47.07;101457.09;5064507;28;20108;-74
2021/03/10 03:17:44;;;;;;;5.35;3.67;;;;;;;6.29;47.17;101458.06;5086249;28;20047;-73
2021/03/10 03:20:15;;;;;;;5.63;3.65;;;;;;;6.29;47.03;101460.78;5078670;28;20037;-73
2021/03/10 03:22:45;;;;;;;5.30;3.65;;;;;;;6.27;46.79;101458.13;5089494;28;20044;-73
2021/03/10 03:25:14;;;;;;;5.97;4.10;;;;;;;6.26;46.85;101456.38;5090008;28;20039;-73
2021/03/10 03:27:43;;;;;;;5.20;3.67;;;;;;;6.26;46.66;101447.34;5089883;28;20047;-73
2021/03/10 03:30:13;;;;;;;5.50;3.67;;;;;;;6.24;46.92;101450.19;5094021;28;20037;-73
2021/03/10 03:32:42;;;;;;;5.60;3.83;;;;;;;6.23;46.97;101443.00;5100232;28;20051;-74
2021/03/10 03:35:11;;;;;;;6.07;4.07;;;;;;;6.22;46.74;101459.38;5092382;28;20036;-73
2021/03/10 03:37:45;;;;;;;5.40;3.80;;;;;;;6.20;46.73;101454.03;5093625;28;20047;-73
2021/03/10 03:40:13;;;;;;;6.07;3.97;;;;;;;6.18;46.67;101450.53;5088983;28;20047;-74
2021/03/10 03:42:40;;;;;;;5.63;3.60;;;;;;;6.17;46.77;101459.63;5093366;28;20040;-74
2021/03/10 03:45:09;;;;;;;6.20;4.00;;;;;;;6.16;47.00;101448.88;5091222;28;20052;-74
2021/03/10 03:47:38;;;;;;;6.25;4.00;;;;;;;6.14;46.96;101454.41;5092392;28;20067;-74
2021/03/10 03:50:09;;;;;;;5.65;3.60;;;;;;;6.13;46.84;101452.66;5092689;28;20568;-74
2021/03/10 03:52:40;;;;;;;5.32;3.85;;;;;;;6.13;46.87;101455.34;5092663;28;20064;-73
2021/03/10 03:55:11;;;;;;;5.35;3.50;;;;;;;6.11;46.70;101457.28;5089931;28;20037;-74
2021/03/10 03:57:40;;;;;;;6.20;3.80;;;;;;;6.09;46.47;101464.63;5086525;28;20041;-73
2021/03/10 04:00:09;;;;;;;4.97;3.45;;;;;;;6.08;46.69;101462.91;5089970;28;20402;-72
2021/03/10 04:02:40;;;;;;;4.70;3.35;;;;;;;6.06;46.82;101458.53;5087778;28;20118;-73
2021/03/10 04:05:09;;;;;;;7.22;3.70;;;;;;;6.06;46.92;101466.69;5072036;28;20067;-73
2021/03/10 04:07:50;;;;;;;6.30;3.85;;;;;;;6.07;47.11;101471.16;5071793;28;20041;-73
2021/03/10 04:10:20;;;;;;;6.20;3.80;;;;;;;6.02;46.90;101471.38;5094870;28;20066;-73
2021/03/10 04:12:54;;;;;;;4.93;3.58;;;;;;;6.03;47.17;101477.69;5087366;28;20028;-74
2021/03/10 04:15:23;;;;;;;5.88;3.88;;;;;;;6.00;46.85;101475.19;5083189;28;20044;-75
2021/03/10 04:17:50;;;;;;;6.30;3.97;;;;;;;5.97;46.74;101465.38;5070645;28;20044;-73
2021/03/10 04:20:21;;;;;;;5.07;3.70;;;;;;;5.98;46.58;101465.28;5075123;28;20645;-74
2021/03/10 04:22:50;;;;;;;5.72;4.28;;;;;;;5.96;46.77;101450.91;5074220;28;20036;-74
2021/03/10 04:25:17;;;;;;;6.30;3.72;;;;;;;5.94;46.80;101458.25;5092999;28;20036;-74
2021/03/10 04:27:45;;;;;;;5.97;4.28;;;;;;;5.92;46.67;101459.34;5081396;28;20487;-76
2021/03/10 04:30:14;;;;;;;5.78;4.00;;;;;;;5.91;46.51;101455.75;5079679;28;20077;-75
2021/03/10 04:32:41;;;;;;;5.68;3.92;;;;;;;5.89;46.66;101452.22;5092635;28;20044;-73
2021/03/10 04:35:10;;;;;;;6.75;4.00;;;;;;;5.89;46.98;101454.06;5093660;28;20090;-74
2021/03/10 04:37:39;;;;;;;6.72;4.18;;;;;;;5.87;46.70;101455.97;5093342;28;20370;-76
2021/03/10 04:40:09;;;;;;;5.38;4.10;;;;;;;5.87;46.87;101458.69;5098432;28;20047;-77
2021/03/10 04:42:37;;;;;;;6.07;4.32;;;;;;;5.83;46.82;101455.31;5094170;28;20124;-73
2021/03/10 04:45:07;;;;;;;6.65;4.10;;;;;;;5.84;46.94;101465.16;5096995;28;20054;-73
2021/03/10 04:47:34;;;;;;;6.15;4.70;;;;;;;5.81;46.61;101456.34;5090868;28;20035;-73
2021/03/10 04:50:02;;;;;;;7.78;4.53;;;;;;;5.79;46.82;101452.84;5072483;28;20071;-74
2021/03/10 04:52:30;;;;;;;6.40;4.68;;;;;;;5.78;46.90;101456.50;5091784;28;20036;-74
2021/03/10 04:54:57;;;;;;;6.82;4.38;;;;;;;5.77;47.17;101452.91;5067641;28;669466;-73
2021/03/10 04:57:26;;;;;;;7.32;4.50;;;;;;;5.76;46.90;101451.16;5091083;28;20044;-74
2021/03/10 04:59:53;;;;;;;6.55;4.65;;;;;;;5.75;46.77;101456.69;5090675;28;20040;-74
2021/03/10 05:02:21;;;;;;;6.82;4.82;;;;;;;5.74;47.06;101454.94;5093106;28;20044;-73
2021/03/10 05:04:48;;;;;;;6.80;4.40;;;;;;;5.73;46.96;101454.06;5098969;28;20040;-74
2021/03/10 05:07:15;;;;;;;6.40;4.22;;;;;;;5.74;47.00;101463.09;5092499;28;20032;-73
2021/03/10 05:09:43;;;;;;;7.07;4.60;;;;;;;5.74;47.31;101454.94;5096696;28;20051;-74
2021/03/10 05:12:11;;;;;;;7.20;4.80;;;;;;;5.74;47.37;101449.50;5096788;28;21058;-74
2021/03/10 05:14:39;;;;;;;8.30;5.07;;;;;;;5.73;47.23;101451.34;5089846;28;20440;-73
2021/03/10 05:17:07;;;;;;;9.48;5.75;;;;;;;5.73;47.26;101459.50;5091000;28;20068;-74
2021/03/10 05:23:03;;;;;;;8.05;4.43;;;;;;;5.70;47.26;101450.63;5091304;28;20052;-74
2021/03/10 05:25:31;;;;;;;8.32;5.25;;;;;;;5.71;47.28;101453.28;5092237;28;20051;-73
2021/03/10 05:27:58;;;;;;;9.23;5.53;;;;;;;5.71;47.09;101460.53;5090553;28;20115;-73
2021/03/10 05:30:26;;;;;;;7.78;5.35;;;;;;;5.73;47.26;101458.63;5085512;28;20098;-74
2021/03/10 05:32:54;;;;;;;7.80;5.45;;;;;;;5.73;47.27;101455.91;5088536;28;20039;-74
2021/03/10 05:35:21;;;;;;;7.05;4.72;;;;;;;5.73;47.33;101461.34;5090737;28;20110;-74
2021/03/10 05:37:48;;;;;;;7.25;4.68;;;;;;;5.73;47.52;101462.22;5092764;28;20040;-73
2021/03/10 05:40:18;;;;;;;7.97;5.30;;;;;;;5.75;47.39;101468.44;5090146;28;20044;-74
2021/03/10 05:42:46;;;;;;;8.57;5.43;;;;;;;5.75;47.18;101470.28;5072507;28;20043;-74
2021/03/10 05:45:14;;;;;;;7.82;4.60;;;;;;;5.75;47.29;101468.44;5091486;28;20489;-74
2021/03/10 05:47:44;;;;;;;10.50;5.93;;;;;;;5.77;47.41;101468.31;5088661;28;20054;-75
2021/03/10 05:50:15;;;;;;;8.35;5.22;;;;;;;5.76;47.42;101463.88;5101744;28;20118;-73
2021/03/10 05:52:48;;;;;;;10.30;5.47;;;;;;;5.78;47.46;101464.66;5066165;28;20407;-74
2021/03/10 05:55:16;;;;;;;7.03;5.07;;;;;;;5.76;47.67;101459.31;5100101;28;20126;-74
2021/03/10 05:57:44;;;;;;;7.88;4.95;;;;;;;5.76;47.44;101467.44;5089532;28;20067;-73
2021/03/10 06:00:13;;;;;;;9.73;5.35;;;;;;;5.79;47.40;101466.41;5097792;28;20483;-74
2021/03/10 06:02:41;;;;;;;7.13;5.20;;;;;;;5.79;47.46;101474.56;5066937;28;20036;-75
2021/03/10 06:05:19;;;;;;;8.07;5.03;;;;;;;5.81;47.77;101465.38;5087068;28;20032;-75
2021/03/10 06:07:47;;;;;;;8.30;5.43;;;;;;;5.79;47.46;101452.84;5091099;28;20115;-75
2021/03/10 06:10:15;;;;;;;7.80;4.93;;;;;;;5.80;47.50;101457.31;5084975;28;20469;-75
2021/03/10 06:12:43;;;;;;;8.77;6.03;;;;;;;5.81;47.61;101459.06;5070312;28;20040;-75
2021/03/10 06:15:13;;;;;;;8.40;5.53;;;;;;;5.81;47.45;101453.63;5085341;28;20044;-76
2021/03/10 06:17:41;;;;;;;7.07;4.80;;;;;;;5.82;47.79;101453.53;5087596;28;20047;-76
2021/03/10 06:20:10;;;;;;;8.73;5.85;;;;;;;5.82;47.69;101456.25;5087625;28;20047;-76
2021/03/10 06:22:38;;;;;;;8.27;5.40;;;;;;;5.83;47.64;101457.13;5078256;28;20060;-76
2021/03/10 06:25:35;;;;;;;8.20;5.35;;;;;;;5.81;48.07;101457.22;5090990;28;20128;-76
2021/03/10 06:28:05;;;;;;;10.40;5.68;;;;;;;5.82;47.75;101461.69;5088830;28;20036;-75
2021/03/10 06:30:36;;;;;;;9.38;5.47;;;;;;;5.86;47.73;101457.81;5091809;28;20035;-75
2021/03/10 06:33:05;;;;;;;10.23;6.32;;;;;;;5.87;47.77;101450.56;5059076;28;20068;-75
2021/03/10 06:35:34;;;;;;;9.93;6.15;;;;;;;5.89;47.65;101460.38;5089603;28;20054;-74
2021/03/10 06:38:11;;;;;;;9.10;6.10;;;;;;;5.92;47.99;101459.34;5087498;28;20499;-75
2021/03/10 06:40:49;;;;;;;9.00;5.30;;;;;;;5.92;48.13;101449.31;5087175;28;20380;-74
2021/03/10 06:43:16;;;;;;;8.88;6.25;;;;;;;5.91;47.84;101452.16;5091151;28;20052;-75
2021/03/10 06:45:43;;;;;;;11.35;6.72;;;;;;;5.92;47.63;101448.47;5091891;28;20051;-74
2021/03/10 06:48:21;;;;;;;9.32;5.90;;;;;;;5.97;47.98;101443.63;5081933;28;20435;-75
2021/03/10 06:50:49;;;;;;;11.27;6.57;;;;;;;5.94;47.90;101436.53;5088150;28;20063;-75
2021/03/10 06:53:17;;;;;;;10.00;6.47;;;;;;;5.96;47.76;101445.47;5075052;28;20043;-75
2021/03/10 06:55:46;;;;;;;11.75;7.18;;;;;;;5.96;47.71;101448.19;5077758;28;20577;-75
2021/03/10 06:58:22;;;;;;;12.57;7.47;;;;;;;6.02;47.76;101452.38;5092472;28;20036;-76
2021/03/10 07:01:00;;;;;;;12.60;7.03;;;;;;;6.00;47.98;101448.91;5084318;28;20617;-75
2021/03/10 07:03:29;;;;;;;10.52;6.78;;;;;;;6.00;47.95;101445.31;5088938;28;20055;-75
2021/03/10 07:05:57;;;;;;;10.43;6.40;;;;;;;5.99;47.65;101447.16;5089800;28;20043;-75
2021/03/10 07:08:26;;;;;;;11.30;7.88;;;;;;;6.03;47.61;101454.13;5088089;28;20040;-75
2021/03/10 07:10:54;;;;;;;15.85;8.07;;;;;;;6.02;47.57;101459.66;5081885;28;20071;-75
2021/03/10 07:13:48;;;;;;;13.23;7.18;;;;;;;6.01;48.15;101464.19;5080628;28;20115;-77
2021/03/10 07:16:15;;;;;;;12.95;8.23;;;;;;;6.01;47.75;101471.50;5094094;28;20048;-77
2021/03/10 07:18:47;;;;;;;11.93;7.88;;;;;;;6.05;47.84;101473.06;5060370;28;20063;-78
2021/03/10 07:21:23;;;;;;;13.95;8.25;;;;;;;6.06;48.06;101481.13;5091358;28;20552;-78
2021/03/10 07:23:56;;;;;;;14.48;8.63;;;;;;;6.08;47.92;101478.34;5091000;28;20203;-78
2021/03/10 07:26:25;;;;;;;12.85;8.18;;;;;;;6.09;48.14;101491.78;5084719;28;20118;-76
2021/03/10 07:28:57;;;;;;;11.93;7.63;;;;;;;6.11;48.00;101486.28;5091345;28;20036;-75
2021/03/10 07:31:25;;;;;;;13.43;8.38;;;;;;;6.12;48.08;101491.63;5086785;28;20105;-73
2021/03/10 07:33:55;;;;;;;13.43;8.98;;;;;;;6.14;48.00;101491.56;5081536;28;20120;-74
2021/03/10 07:36:36;;;;;;;13.88;8.98;;;;;;;6.16;48.34;101490.50;5089319;28;20386;-73
2021/03/10 07:39:07;;;;;;;13.02;8.18;;;;;;;6.18;48.32;101498.53;5095115;28;20040;-74
2021/03/10 07:41:36;;;;;;;13.80;8.10;;;;;;;6.19;48.08;101494.88;5081044;28;20116;-74
2021/03/10 07:44:15;;;;;;;15.32;8.73;;;;;;;6.22;48.44;101489.25;5082156;28;20093;-74
2021/03/10 07:46:43;;;;;;;14.95;8.10;;;;;;;6.20;47.93;101491.19;5078739;28;20040;-75
2021/03/10 07:49:22;;;;;;;13.57;7.80;;;;;;;6.25;48.24;101494.53;5084382;28;20064;-74
2021/03/10 07:51:51;;;;;;;14.27;9.07;;;;;;;6.24;48.14;101499.09;5091033;28;20404;-75
2021/03/10 07:54:25;;;;;;;13.98;8.40;;;;;;;6.26;47.87;101493.53;5068979;28;20028;-74
2021/03/10 07:57:05;;;;;;;16.83;8.80;;;;;;;6.29;48.22;101496.09;5077972;28;20035;-74
2021/03/10 07:59:32;;;;;;;14.32;8.73;;;;;;;6.27;47.98;101488.03;5088974;28;20139;-75
2021/03/10 08:02:01;;;;;;;12.93;7.82;;;;;;;6.29;48.05;101491.53;5091998;28;20146;-73
2021/03/10 08:04:30;;;;;;;14.65;8.27;;;;;;;6.30;47.85;101498.72;5094345;28;20035;-76
2021/03/10 08:06:58;;;;;;;13.20;7.68;;;;;;;6.32;47.98;101493.22;5092143;28;20133;-76
2021/03/10 08:09:28;;;;;;;12.18;7.88;;;;;;;6.34;48.20;101500.28;5057524;28;20053;-75
2021/03/10 08:12:08;;;;;;;14.43;8.35;;;;;;;6.36;48.12;101494.75;5085354;28;20041;-76
2021/03/10 08:14:40;;;;;;;12.88;7.85;;;;;;;6.36;48.34;101490.19;5091346;28;20036;-77
2021/03/10 08:17:08;;;;;;;12.73;8.18;;;;;;;6.35;47.91;101496.59;5088460;28;20060;-76
2021/03/10 08:19:37;;;;;;;13.68;8.45;;;;;;;6.37;48.06;101482.94;5082162;28;20046;-75
2021/03/10 08:22:05;;;;;;;13.57;8.35;;;;;;;6.40;48.01;101490.03;5092554;28;20039;-75
2021/03/10 08:24:35;;;;;;;13.88;8.45;;;;;;;6.43;48.29;101482.56;5075332;28;20573;-79
2021/03/10 08:27:04;;;;;;;14.05;8.57;;;;;;;6.42;48.24;101486.22;5092475;28;20036;-79
2021/03/10 08:29:34;;;;;;;14.52;9.05;;;;;;;6.43;47.88;101477.13;5075014;28;20036;-77
2021/03/10 08:32:02;;;;;;;14.85;8.88;;;;;;;6.45;47.99;101477.91;5092638;28;20040;-77
2021/03/10 08:34:34;;;;;;;14.13;9.07;;;;;;;6.49;48.22;101470.47;5094060;28;20462;-78
2021/03/10 08:37:06;;;;;;;17.00;9.48;;;;;;;6.49;48.31;101467.75;5075747;28;20067;-77
2021/03/10 08:39:40;;;;;;;17.48;9.82;;;;;;;6.51;48.37;101472.09;5068373;28;20573;-78
2021/03/10 08:42:07;;;;;;;14.95;9.23;;;;;;;6.52;48.09;101470.25;5088374;28;20113;-76
2021/03/10 08:44:40;;;;;;;15.32;9.20;;;;;;;6.55;48.37;101468.25;5095546;28;20040;-75
2021/03/10 08:47:12;;;;;;;14.18;7.97;;;;;;;6.55;48.74;101462.81;5092033;28;20117;-71
2021/03/10 08:49:40;;;;;;;14.52;8.77;;;;;;;6.56;48.26;101458.25;5093773;28;20035;-78
2021/03/10 08:52:11;;;;;;;17.25;10.00;;;;;;;6.62;48.44;101455.16;5079677;28;20051;-75
2021/03/10 08:54:52;;;;;;;16.65;10.02;;;;;;;6.65;48.61;101461.31;5071063;28;20032;-77
2021/03/10 08:57:21;;;;;;;16.35;10.23;;;;;;;6.67;48.47;101459.34;5093655;28;20036;-77
2021/03/10 08:59:49;;;;;;;16.58;9.63;;;;;;;6.68;48.31;101455.66;5081744;28;20042;-75
2021/03/10 09:02:26;;;;;;;13.50;8.57;;;;;;;6.74;48.42;101451.72;5076707;28;20470;-77
2021/03/10 09:04:54;;;;;;;16.25;10.10;;;;;;;6.74;48.53;101452.59;5084574;28;20040;-77
2021/03/10 09:07:23;;;;;;;17.55;10.13;;;;;;;6.78;48.32;101447.81;5058286;28;20098;-77
2021/03/10 09:09:56;;;;;;;16.63;10.27;;;;;;;6.82;48.57;101448.53;5076822;28;20052;-75
2021/03/10 09:12:24;;;;;;;15.55;9.35;;;;;;;6.80;48.27;101453.16;5073080;28;20728;-78
2021/03/10 09:15:10;;;;;;;15.50;8.43;;;;;;;6.86;48.25;101452.78;5101066;28;20040;-77
2021/03/10 09:17:39;;;;;;;14.32;8.70;;;;;;;6.86;48.25;101448.22;5066595;28;20044;-77
2021/03/10 09:20:12;;;;;;;15.40;9.27;;;;;;;6.90;48.17;101444.38;5071741;28;20097;-76
2021/03/10 09:22:44;;;;;;;16.42;10.60;;;;;;;6.93;48.24;101438.72;5079935;28;20044;-76
2021/03/10 09:25:30;;;;;;;18.35;10.35;;;;;;;6.94;48.31;101434.16;5064826;28;20135;-76
2021/03/10 09:28:05;;;;;;;14.88;9.52;;;;;;;6.96;48.26;101430.38;5073850;28;20513;-77
2021/03/10 09:30:37;;;;;;;19.05;10.93;;;;;;;6.99;48.27;101432.91;5066219;28;20132;-77
2021/03/10 09:33:06;;;;;;;18.00;10.32;;;;;;;7.02;48.27;101423.66;5099936;28;20113;-77
2021/03/10 09:35:36;;;;;;;17.00;10.52;;;;;;;7.06;48.33;101430.72;5080586;28;20448;-77
2021/03/10 09:38:10;;;;;;;18.92;11.10;;;;;;;7.06;48.42;101420.72;5071631;28;20517;-79
2021/03/10 09:40:40;;;;;;;16.33;10.18;;;;;;;7.11;48.41;101423.13;5062542;28;20044;-78
2021/03/10 09:43:11;;;;;;;17.75;10.75;;;;;;;7.13;48.29;101423.03;5090376;28;20047;-77
2021/03/10 09:45:39;;;;;;;18.67;10.80;;;;;;;7.16;48.07;101420.97;5073893;28;20055;-76
2021/03/10 09:48:12;;;;;;;18.77;10.88;;;;;;;7.19;48.25;101418.06;5074054;28;20111;-77
2021/03/10 09:50:51;;;;;;;18.52;10.98;;;;;;;7.21;48.19;101428.88;5076075;28;20162;-75
2021/03/10 09:53:26;;;;;;;21.80;11.13;;;;;;;7.26;48.20;101426.72;5091131;28;20036;-76
2021/03/10 09:56:07;;;;;;;19.88;10.50;;;;;;;7.29;48.36;101427.41;5081588;28;20094;-74
2021/03/10 09:58:49;;;;;;;20.40;11.15;;;;;;;7.35;48.18;101421.56;5091688;28;20043;-74
2021/03/10 10:01:21;;;;;;;19.67;11.10;;;;;;;7.35;48.29;101415.25;5066439;28;20093;-78
2021/03/10 10:03:50;;;;;;;16.30;9.77;;;;;;;7.39;48.27;101409.53;5073803;28;20044;-81
2021/03/10 10:06:20;;;;;;;15.75;10.00;;;;;;;7.44;48.60;101407.38;5077150;28;20047;-80
2021/03/10 10:08:51;;;;;;;16.90;9.95;;;;;;;7.48;48.21;101405.34;5083879;28;20557;-79
2021/03/10 10:11:22;;;;;;;18.75;10.07;;;;;;;7.54;48.12;101401.34;5073362;28;20051;-79
2021/03/10 10:13:51;;;;;;;17.58;10.55;;;;;;;7.56;48.22;101394.81;5082059;28;20044;-78
2021/03/10 10:16:20;;;;;;;19.63;10.82;;;;;;;7.59;48.33;101400.06;5074667;28;20064;-79
2021/03/10 10:18:49;;;;;;;18.33;10.30;;;;;;;7.64;48.33;101406.09;5091533;28;20099;-80
2021/03/10 10:21:18;;;;;;;20.02;10.70;;;;;;;7.70;48.09;101399.34;5062043;28;20050;-80
2021/03/10 10:23:48;;;;;;;20.60;11.35;;;;;;;7.74;48.20;101400.88;5099454;28;20622;-77
2021/03/10 10:26:19;;;;;;;20.83;11.48;;;;;;;7.79;48.03;101396.03;5074122;28;20494;-77
2021/03/10 10:28:50;;;;;;;19.98;11.52;;;;;;;7.84;48.03;101402.91;5080031;28;20062;-77
2021/03/10 10:31:39;;;;;;;20.77;11.38;;;;;;;7.88;48.19;101403.59;5092188;28;20538;-77
2021/03/10 10:34:08;;;;;;;18.60;10.95;;;;;;;7.96;48.06;101394.91;5072419;28;20058;-75
2021/03/10 10:36:38;;;;;;;20.35;11.13;;;;;;;8.00;47.95;101383.69;5086101;28;20476;-77
2021/03/10 10:39:44;;;;;;;18.77;10.80;;;;;;;8.06;47.88;101387.88;5084664;28;20051;-77
2021/03/10 10:42:15;;;;;;;20.98;11.52;;;;;;;8.12;47.84;101392.91;5081115;28;20140;-79
2021/03/10 10:44:44;;;;;;;21.02;11.93;;;;;;;8.18;47.68;101390.63;5052992;28;20558;-76
2021/03/10 10:47:16;;;;;;;21.88;12.68;;;;;;;8.20;47.71;101391.41;5086193;28;20109;-74
2021/03/10 10:49:56;;;;;;;17.67;10.60;;;;;;;8.28;47.56;101388.16;5080187;28;20563;-73
2021/03/10 10:52:25;;;;;;;20.05;11.30;;;;;;;8.33;47.57;101383.25;5069685;28;20055;-74
2021/03/10 10:54:52;;;;;;;19.00;10.88;;;;;;;8.40;47.34;101386.41;5083598;28;20048;-74
2021/03/10 10:57:21;;;;;;;16.90;9.82;;;;;;;8.44;47.38;101382.56;5060654;28;20487;-74
2021/03/10 10:59:57;;;;;;;18.08;9.90;;;;;;;8.49;47.06;101378.50;5086580;28;20040;-74
2021/03/10 11:02:28;;;;;;;17.67;9.77;;;;;;;8.53;47.08;101376.47;5088948;28;20043;-73
2021/03/10 11:05:07;;;;;;;19.70;10.93;;;;;;;8.57;47.09;101372.53;5077173;28;20032;-74
2021/03/10 11:07:36;;;;;;;18.30;10.43;;;;;;;8.62;46.97;101373.97;5079567;28;20234;-74
2021/03/10 11:10:07;;;;;;;23.20;11.98;;;;;;;8.67;46.71;101364.56;5070212;28;20044;-73
2021/03/10 11:12:41;;;;;;;18.98;10.85;;;;;;;8.70;46.75;101364.38;5088494;28;20086;-74
2021/03/10 11:15:11;;;;;;;17.00;10.32;;;;;;;8.74;46.62;101369.50;5090870;28;20040;-73
2021/03/10 11:17:45;;;;;;;17.08;9.68;;;;;;;8.78;46.58;101367.44;5074703;28;20495;-73
2021/03/10 11:20:16;;;;;;;17.27;9.68;;;;;;;8.83;46.50;101376.16;5086921;28;20051;-73
2021/03/10 11:22:43;;;;;;;16.38;9.40;;;;;;;8.85;46.36;101371.47;5088327;28;20056;-73
2021/03/10 11:25:14;;;;;;;16.75;9.18;;;;;;;8.89;46.28;101370.25;5087316;28;20046;-73
2021/03/10 11:27:43;;;;;;;17.88;10.15;;;;;;;8.92;46.30;101361.84;5099800;28;20036;-73
2021/03/10 11:30:17;;;;;;;16.87;9.63;;;;;;;8.94;46.15;101360.78;5069477;28;20066;-73
2021/03/10 11:32:45;;;;;;;16.77;9.15;;;;;;;8.98;46.12;101356.81;5082418;28;20036;-73
2021/03/10 11:35:17;;;;;;;18.20;10.20;;;;;;;9.00;46.09;101343.94;5078034;28;20448;-74
2021/03/10 11:37:47;;;;;;;17.10;9.98;;;;;;;9.06;46.18;101336.28;5071388;28;20044;-73
2021/03/10 11:40:16;;;;;;;16.25;9.40;;;;;;;9.11;45.89;101334.13;5072344;28;20063;-73
2021/03/10 11:42:46;;;;;;;14.90;8.43;;;;;;;9.14;46.03;101337.47;5090830;28;20562;-73
2021/03/10 11:45:14;;;;;;;14.95;8.35;;;;;;;9.18;45.73;101336.28;5074141;28;20480;-74
2021/03/10 11:47:42;;;;;;;14.95;8.32;;;;;;;9.23;45.60;101335.94;5090898;28;20372;-73